Time;durP1;ratioP1;P1;durP2;ratioP2;P2;SDS_P1;SDS_P2;PMS_P1;PMS_P2;Temp;Humidity;BMP_temperature;BMP_pressure;BME280_temperature;BME280_humidity;BME280_pressure;Samples;Min_cycle;Max_cycle;Signal;HPM_P1;HPM_P2
2022/07/03 00:00:18;;;;;;;4.13;2.67;;;;;;;12.97;92.52;101569.41;10503404;28;20464;-76
2022/07/03 00:05:19;;;;;;;4.22;2.83;;;;;;;12.90;93.58;101563.88;10480495;28;20033;-76
2022/07/03 00:10:19;;;;;;;3.00;2.50;;;;;;;12.91;93.76;101560.41;10467108;28;20078;-76
2022/07/03 00:15:20;;;;;;;7.45;3.40;;;;;;;12.92;94.44;101549.06;10470641;28;20040;-75
2022/07/03 00:20:20;;;;;;;8.57;4.25;;;;;;;12.89;94.96;101542.78;10478497;28;20485;-76
2022/07/03 00:25:21;;;;;;;4.68;2.58;;;;;;;12.83;94.79;101534.59;10461770;28;20041;-76
2022/07/03 00:30:21;;;;;;;6.68;2.83;;;;;;;12.67;95.58;101538.19;10507530;28;20037;-75
2022/07/03 00:35:22;;;;;;;5.80;3.30;;;;;;;12.46;96.23;101547.69;10465805;28;20059;-76
2022/07/03 00:40:22;;;;;;;7.15;4.47;;;;;;;12.34;97.39;101557.56;10491340;28;20041;-76
2022/07/03 00:45:23;;;;;;;7.25;4.45;;;;;;;12.26;98.51;101558.91;10488770;28;20066;-77
2022/07/03 00:50:25;;;;;;;9.50;4.25;;;;;;;12.23;100.00;101537.75;10456973;28;20242;-75
2022/07/03 00:55:26;;;;;;;5.57;3.83;;;;;;;12.19;100.00;101547.16;10491041;28;20075;-75
2022/07/03 01:00:26;;;;;;;4.63;3.45;;;;;;;12.09;100.00;101548.44;10484580;28;20542;-76
2022/07/03 01:05:40;;;;;;;6.20;3.58;;;;;;;12.09;100.00;101544.88;10485120;28;20116;-75
2022/07/03 01:11:01;;;;;;;6.43;4.82;;;;;;;12.04;100.00;101542.94;10500459;28;20070;-75
2022/07/03 01:16:06;;;;;;;12.67;4.30;;;;;;;12.02;100.00;101539.31;10500168;28;20543;-75
2022/07/03 01:21:31;;;;;;;5.20;4.03;;;;;;;12.12;100.00;101539.81;10483166;28;20032;-75
2022/07/03 01:26:34;;;;;;;6.20;4.63;;;;;;;12.19;100.00;101534.97;10442307;28;20043;-75
2022/07/03 01:31:34;;;;;;;5.13;4.63;;;;;;;12.30;100.00;101530.25;10483934;28;20551;-75
2022/07/03 01:36:35;;;;;;;6.32;3.63;;;;;;;12.38;100.00;101535.00;10491545;28;20120;-75
2022/07/03 01:41:35;;;;;;;5.85;4.00;;;;;;;12.33;100.00;101525.16;10477243;28;20078;-76
2022/07/03 01:46:36;;;;;;;7.18;4.88;;;;;;;12.31;100.00;101528.53;10459377;28;20438;-75
2022/07/03 01:51:38;;;;;;;5.55;4.00;;;;;;;12.27;100.00;101532.72;10489301;28;20063;-77
2022/07/03 01:56:39;;;;;;;8.70;5.03;;;;;;;12.17;100.00;101535.69;10510061;28;20419;-76
2022/07/03 02:01:51;;;;;;;7.47;4.13;;;;;;;12.04;100.00;101532.44;10473406;28;20049;-76
2022/07/03 02:07:18;;;;;;;6.63;5.32;;;;;;;11.95;100.00;101528.41;10444679;28;20071;-76
2022/07/03 02:12:19;;;;;;;10.27;5.20;;;;;;;11.82;100.00;101524.22;10488046;28;20041;-76
2022/07/03 02:17:21;;;;;;;9.38;5.80;;;;;;;11.73;100.00;101530.78;10461392;28;20032;-76
2022/07/03 02:22:26;;;;;;;9.13;7.03;;;;;;;11.82;100.00;101533.00;10490443;28;20037;-76
2022/07/03 02:27:26;;;;;;;15.30;9.30;;;;;;;12.01;100.00;101541.88;10467588;28;20277;-75
2022/07/03 02:32:27;;;;;;;9.52;7.88;;;;;;;12.04;100.00;101547.28;10469262;28;20519;-76
2022/07/03 02:37:30;;;;;;;7.50;5.82;;;;;;;12.07;100.00;101546.53;10481030;28;20029;-76
2022/07/03 02:42:44;;;;;;;9.40;8.20;;;;;;;11.97;100.00;101546.00;10476888;28;20686;-76
2022/07/03 02:47:48;;;;;;;11.10;7.03;;;;;;;11.89;100.00;101540.38;10469655;28;20094;-76
2022/07/03 02:53:11;;;;;;;10.30;8.73;;;;;;;11.82;100.00;101547.81;10467086;28;20045;-75
2022/07/03 02:58:31;;;;;;;15.38;11.32;;;;;;;11.73;100.00;101543.00;10447740;28;20053;-77
2022/07/03 03:03:32;;;;;;;16.27;11.68;;;;;;;11.70;100.00;101550.69;10460248;28;20119;-76
2022/07/03 03:08:42;;;;;;;13.65;11.90;;;;;;;11.64;100.00;101556.50;10479900;28;20040;-75
2022/07/03 03:13:44;;;;;;;15.65;11.75;;;;;;;11.58;100.00;101549.22;10415156;28;20033;-75
2022/07/03 03:18:44;;;;;;;14.73;12.02;;;;;;;11.60;100.00;101557.16;10444631;28;20037;-75
2022/07/03 03:23:49;;;;;;;14.45;12.13;;;;;;;11.58;100.00;101556.16;10424877;28;20064;-75
2022/07/03 03:28:50;;;;;;;13.40;12.10;;;;;;;11.52;100.00;101564.63;10444134;28;20029;-76
2022/07/03 03:33:51;;;;;;;14.48;11.60;;;;;;;11.43;100.00;101557.13;10458681;28;20036;-75
2022/07/03 03:38:51;;;;;;;14.98;10.80;;;;;;;11.37;100.00;101567.28;10466906;28;20044;-76
2022/07/03 03:43:52;;;;;;;13.07;11.73;;;;;;;11.33;100.00;101567.91;10500198;28;20060;-75
2022/07/03 03:48:52;;;;;;;15.95;14.13;;;;;;;11.29;100.00;101574.72;10449250;28;20119;-74
2022/07/03 03:53:53;;;;;;;17.17;14.52;;;;;;;11.29;100.00;101569.47;10482883;28;20064;-74
2022/07/03 03:58:53;;;;;;;16.48;13.48;;;;;;;11.30;100.00;101573.00;10455697;28;20071;-74
2022/07/03 04:03:54;;;;;;;16.83;13.63;;;;;;;11.43;100.00;101570.22;10505160;28;20089;-73
2022/07/03 04:08:55;;;;;;;11.93;10.32;;;;;;;11.48;100.00;101572.22;10493907;28;20033;-74
2022/07/03 04:13:55;;;;;;;17.98;10.68;;;;;;;11.47;100.00;101571.31;10472007;28;20060;-75
2022/07/03 04:18:56;;;;;;;14.98;10.68;;;;;;;11.46;100.00;101580.88;10478709;28;20064;-75
2022/07/03 04:23:56;;;;;;;14.65;11.02;;;;;;;11.53;100.00;101574.28;10482685;28;20044;-75
2022/07/03 04:28:57;;;;;;;17.95;12.48;;;;;;;11.84;100.00;101583.81;10517242;28;20040;-76
2022/07/03 04:33:57;;;;;;;18.42;11.60;;;;;;;12.22;100.00;101584.06;10503506;28;20040;-75
2022/07/03 04:38:58;;;;;;;13.25;8.52;;;;;;;12.69;100.00;101583.81;10491722;28;20058;-75
2022/07/03 04:43:58;;;;;;;14.38;10.02;;;;;;;12.88;100.00;101598.78;10528835;28;20032;-75
2022/07/03 04:48:59;;;;;;;10.23;6.85;;;;;;;13.18;100.00;101598.50;10514423;28;20041;-75
2022/07/03 04:53:59;;;;;;;9.40;7.30;;;;;;;13.59;100.00;101590.81;10492690;28;20475;-75
2022/07/03 04:59:00;;;;;;;6.50;5.82;;;;;;;13.76;94.04;101600.38;10499847;28;20038;-75
2022/07/03 05:04:00;;;;;;;9.55;6.95;;;;;;;13.83;92.11;101600.66;10511421;28;20032;-75
2022/07/03 05:09:01;;;;;;;7.28;5.78;;;;;;;14.28;91.04;101595.66;10473432;28;20071;-76
2022/07/03 05:14:02;;;;;;;9.48;7.50;;;;;;;14.90;87.79;101608.88;10509937;28;20383;-76
2022/07/03 05:19:06;;;;;;;7.00;5.45;;;;;;;15.58;84.99;101610.72;10452994;28;20488;-73
2022/07/03 05:24:07;;;;;;;10.50;5.70;;;;;;;16.30;79.44;101611.63;10479042;28;20037;-76
2022/07/03 05:29:08;;;;;;;8.70;5.53;;;;;;;17.03;77.39;101607.13;10485138;28;20515;-75
2022/07/03 05:34:08;;;;;;;6.00;4.90;;;;;;;18.17;73.63;101607.94;10468520;28;20051;-74
2022/07/03 05:44:28;;;;;;;9.93;4.60;;;;;;;18.75;66.82;101599.75;10500120;28;20068;-73
2022/07/03 05:49:29;;;;;;;6.07;4.88;;;;;;;18.87;66.22;101602.72;10501999;28;20115;-75
2022/07/03 05:54:29;;;;;;;6.17;4.23;;;;;;;19.66;63.62;101598.38;10499560;28;20127;-73
2022/07/03 05:59:30;;;;;;;9.07;4.23;;;;;;;20.03;63.19;101603.56;10502133;28;20044;-73
2022/07/03 06:04:30;;;;;;;6.60;4.40;;;;;;;19.58;63.62;101607.94;10484022;28;20127;-73
2022/07/03 06:09:31;;;;;;;7.40;5.63;;;;;;;18.93;66.94;101609.91;10498423;28;20481;-74
2022/07/03 06:14:31;;;;;;;7.93;5.45;;;;;;;19.00;65.70;101611.00;10485136;28;20126;-75
2022/07/03 06:19:32;;;;;;;6.70;4.30;;;;;;;20.47;61.06;101608.84;10477691;28;20119;-74
2022/07/03 06:24:32;;;;;;;12.90;7.13;;;;;;;21.32;56.37;101611.19;10465001;28;20037;-75
2022/07/03 06:29:33;;;;;;;10.03;6.43;;;;;;;21.24;58.03;101632.34;10461311;28;20516;-76
2022/07/03 06:34:33;;;;;;;10.23;6.00;;;;;;;22.27;54.61;101627.53;10473780;28;20082;-74
2022/07/03 06:39:34;;;;;;;10.50;4.67;;;;;;;22.56;52.06;101631.44;10464051;28;20124;-74
2022/07/03 06:44:34;;;;;;;15.33;3.87;;;;;;;22.65;52.60;101634.19;10464655;28;20044;-74
2022/07/03 06:49:37;;;;;;;6.67;3.53;;;;;;;22.66;51.95;101633.31;10484401;28;20037;-74
2022/07/03 06:54:39;;;;;;;8.30;3.92;;;;;;;23.11;52.63;101628.34;10468960;28;20052;-74
2022/07/03 06:59:41;;;;;;;4.90;2.88;;;;;;;23.31;52.60;101623.22;10479609;28;20094;-73
2022/07/03 07:04:42;;;;;;;;;;;;;;;23.38;50.59;101623.25;10513228;28;20450;-73
2022/07/03 07:09:50;;;;;;;13.67;5.60;;;;;;;24.04;49.27;101628.94;10483743;28;19971;-73
2022/07/03 07:14:51;;;;;;;11.43;7.60;;;;;;;23.95;50.29;101628.88;10465425;28;20109;-73
2022/07/03 07:19:51;;;;;;;16.37;5.67;;;;;;;24.55;48.46;101630.84;10454049;28;20049;-74
2022/07/03 07:24:52;;;;;;;5.50;3.40;;;;;;;24.42;48.15;101635.31;10475602;28;20036;-76
2022/07/03 07:29:54;;;;;;;9.10;3.08;;;;;;;24.98;46.59;101634.47;10477430;28;20052;-76
2022/07/03 07:34:56;;;;;;;7.18;3.35;;;;;;;25.47;47.28;101639.81;10481549;28;20032;-77
2022/07/03 07:39:57;;;;;;;13.00;8.82;;;;;;;25.61;44.03;101633.53;10481746;28;20036;-77
2022/07/03 07:44:58;;;;;;;10.32;3.80;;;;;;;25.70;47.43;101633.50;10474501;28;20455;-74
2022/07/03 07:49:58;;;;;;;15.90;4.70;;;;;;;26.93;43.86;101636.44;10509687;28;20040;-76
2022/07/03 07:54:59;;;;;;;7.80;4.83;;;;;;;26.99;41.87;101629.22;10484467;28;20166;-76
2022/07/03 07:59:59;;;;;;;10.75;4.40;;;;;;;26.49;43.47;101634.94;10495707;28;20069;-75
2022/07/03 08:10:19;;;;;;;4.72;2.40;;;;;;;26.33;42.44;101628.78;10508026;28;20491;-75
2022/07/03 08:15:22;;;;;;;14.30;2.33;;;;;;;26.87;43.03;101640.97;10447704;28;20077;-74
2022/07/03 08:20:23;;;;;;;4.53;2.50;;;;;;;27.78;41.34;101626.63;10460614;28;20477;-76
2022/07/03 08:25:24;;;;;;;4.17;2.17;;;;;;;27.05;40.11;101621.09;10525880;28;20123;-75
2022/07/03 08:30:25;;;;;;;6.40;2.78;;;;;;;27.27;39.61;101625.38;10494263;28;20294;-77
2022/07/03 08:35:26;;;;;;;4.43;2.10;;;;;;;27.41;39.96;101624.31;10490000;28;20032;-76
2022/07/03 08:40:27;;;;;;;4.38;2.08;;;;;;;27.11;40.71;101629.09;10493765;28;20045;-74
2022/07/03 08:45:27;;;;;;;5.43;2.75;;;;;;;26.81;38.06;101636.50;10422058;28;20041;-74
2022/07/03 08:50:28;;;;;;;3.23;1.50;;;;;;;27.80;38.52;101627.50;10420744;28;20037;-74
2022/07/03 08:55:28;;;;;;;2.20;1.20;;;;;;;27.93;36.87;101621.97;10443337;28;20037;-74
2022/07/03 09:00:29;;;;;;;2.07;1.00;;;;;;;27.52;39.59;101630.50;10475746;28;20037;-74
2022/07/03 09:05:31;;;;;;;5.97;1.60;;;;;;;27.93;38.88;101627.34;10442674;28;20292;-75
2022/07/03 09:10:31;;;;;;;8.25;1.52;;;;;;;28.01;35.77;101621.88;10448316;28;20566;-75
2022/07/03 09:15:33;;;;;;;2.20;1.08;;;;;;;28.38;37.50;101627.66;10443542;28;20037;-75
2022/07/03 09:20:36;;;;;;;2.40;1.25;;;;;;;28.64;38.29;101622.78;10427548;28;20068;-75
2022/07/03 09:25:55;;;;;;;4.30;1.45;;;;;;;29.01;35.77;101617.69;10425854;28;20392;-74
2022/07/03 09:31:00;;;;;;;2.90;1.25;;;;;;;28.23;38.51;101617.09;10482691;28;20096;-74
2022/07/03 09:36:01;;;;;;;3.30;1.50;;;;;;;29.95;36.10;101615.88;10482640;28;20044;-76
2022/07/03 09:41:01;;;;;;;4.83;1.37;;;;;;;30.15;34.24;101619.06;10466940;28;20109;-75
2022/07/03 09:46:02;;;;;;;10.27;2.03;;;;;;;28.99;35.61;101630.28;10483372;28;20283;-76
2022/07/03 09:51:28;;;;;;;5.53;1.48;;;;;;;29.06;35.37;101623.00;10483634;28;20044;-75
2022/07/03 09:56:36;;;;;;;2.20;1.55;;;;;;;29.25;34.32;101628.94;10443444;28;1177861;-74
2022/07/03 10:01:39;;;;;;;3.08;1.58;;;;;;;29.41;35.85;101617.88;10480006;28;20049;-75
2022/07/03 10:06:55;;;;;;;3.13;1.75;;;;;;;29.93;33.01;101629.44;10448334;28;20052;-75
2022/07/03 10:11:56;;;;;;;2.53;0.82;;;;;;;30.02;34.23;101617.56;10445886;28;20182;-74
2022/07/03 10:16:58;;;;;;;;;;;;;;;30.06;34.25;101630.06;10444047;28;20065;-74
2022/07/03 10:22:02;;;;;;;2.35;0.98;;;;;;;29.96;33.84;101618.56;10444178;28;19921;-74
2022/07/03 10:27:03;;;;;;;2.92;0.80;;;;;;;29.46;36.62;101618.69;10418364;28;20044;-75
2022/07/03 10:32:05;;;;;;;2.15;1.20;;;;;;;30.88;33.93;101620.06;10427181;28;20044;-74
2022/07/03 10:37:06;;;;;;;2.50;1.10;;;;;;;29.72;34.96;101626.25;10426465;28;20026;-74
2022/07/03 10:47:46;;;;;;;2.92;1.13;;;;;;;30.55;31.68;101628.06;10484261;28;20447;-74
2022/07/03 10:52:47;;;;;;;6.68;2.15;;;;;;;29.10;36.19;101634.59;10467606;28;20144;-74
2022/07/03 10:58:07;;;;;;;6.07;1.90;;;;;;;28.95;37.68;101636.66;10477352;28;20047;-73
2022/07/03 11:03:08;;;;;;;31.92;28.98;;;;;;;31.34;31.90;101630.59;10496761;27;20032;-74
2022/07/03 11:08:09;;;;;;;1.67;0.83;;;;;;;30.47;32.15;101630.06;10443690;28;20071;-74
2022/07/03 11:13:10;;;;;;;2.58;1.10;;;;;;;26.73;39.17;101632.97;10470913;28;20047;-74
2022/07/03 11:18:13;;;;;;;3.88;1.58;;;;;;;28.79;37.65;101629.75;10492405;28;20071;-74
2022/07/03 11:23:20;;;;;;;5.13;1.92;;;;;;;27.17;40.14;101633.53;10525887;28;20040;-75
2022/07/03 11:28:33;;;;;;;3.03;1.20;;;;;;;27.03;41.34;101626.50;10439967;28;20508;-73
2022/07/03 11:33:42;;;;;;;3.50;1.75;;;;;;;26.03;40.81;101628.03;10480839;28;20412;-75
2022/07/03 11:39:09;;;;;;;2.10;1.17;;;;;;;27.00;39.41;101615.78;10487594;28;20044;-74
2022/07/03 11:44:13;;;;;;;2.60;1.10;;;;;;;25.57;44.63;101626.41;10476365;28;20033;-75
2022/07/03 11:49:16;;;;;;;1.98;1.20;;;;;;;27.80;42.94;101623.94;10465940;28;20435;-73
2022/07/03 11:54:16;;;;;;;2.35;1.55;;;;;;;28.11;38.56;101620.84;10482023;28;20040;-74
2022/07/03 11:59:17;;;;;;;2.27;1.03;;;;;;;28.28;40.65;101618.84;10465292;28;20080;-75
2022/07/03 12:04:20;;;;;;;2.35;1.10;;;;;;;29.46;37.02;101618.69;10484247;28;20048;-75
2022/07/03 12:09:29;;;;;;;3.40;0.90;;;;;;;29.51;38.96;101621.31;10494479;28;20059;-75
2022/07/03 12:14:42;;;;;;;2.20;1.52;;;;;;;28.44;37.96;101615.91;10438734;28;20029;-75
2022/07/03 12:20:00;;;;;;;2.58;1.05;;;;;;;28.14;37.70;101623.53;10474334;28;20041;-75
2022/07/03 12:25:10;;;;;;;5.47;3.00;;;;;;;29.55;35.06;101617.63;10452991;28;20436;-75
2022/07/03 12:30:12;;;;;;;3.13;1.02;;;;;;;30.22;34.36;101609.03;10469697;28;20040;-75
2022/07/03 12:35:13;;;;;;;2.30;0.80;;;;;;;29.81;35.45;101602.72;10497260;28;20123;-76
2022/07/03 12:40:15;;;;;;;4.97;1.50;;;;;;;27.17;40.72;101610.25;10484286;28;20047;-75
2022/07/03 12:45:20;;;;;;;2.67;1.02;;;;;;;28.40;37.29;101606.09;10515727;28;20033;-75
2022/07/03 12:50:20;;;;;;;1.02;0.70;;;;;;;28.54;41.57;101603.19;10462533;28;20123;-75
2022/07/03 12:55:30;;;;;;;4.77;0.87;;;;;;;29.72;35.25;101598.38;10510061;28;20040;-75
2022/07/03 13:00:31;;;;;;;2.50;0.80;;;;;;;28.45;36.83;101596.16;10532511;28;20035;-74
2022/07/03 13:05:31;;;;;;;2.03;0.80;;;;;;;28.16;37.22;101597.47;10475838;28;20388;-75
2022/07/03 13:10:32;;;;;;;39.07;30.87;;;;;;;27.27;39.67;101605.69;10464626;28;20068;-76
2022/07/03 13:15:32;;;;;;;2.50;1.57;;;;;;;26.19;40.60;101604.72;10457925;28;20476;-77
2022/07/03 13:20:33;;;;;;;2.33;1.17;;;;;;;25.67;40.57;101600.47;10485301;28;20051;-76
2022/07/03 13:25:36;;;;;;;;;;;;;;;27.03;39.51;101602.34;10452503;28;20142;-76
2022/07/03 13:30:37;;;;;;;;;;;;;;;28.92;35.87;101595.41;10442430;28;19924;-76
2022/07/03 13:35:37;;;;;;;2.80;0.80;;;;;;;29.79;36.55;101600.03;10452047;28;19924;-76
2022/07/03 13:40:39;;;;;;;4.07;2.00;;;;;;;28.33;36.41;101599.91;10419201;28;20044;-77
2022/07/03 13:45:40;;;;;;;3.22;1.85;;;;;;;27.88;37.74;101608.59;10428543;28;20040;-76
2022/07/03 13:50:41;;;;;;;15.02;6.20;;;;;;;27.21;40.10;101600.38;10445978;28;20044;-77
2022/07/03 13:55:42;;;;;;;6.68;4.03;;;;;;;27.62;38.94;101601.75;10444651;28;20800;-77
2022/07/03 14:00:43;;;;;;;2.33;1.23;;;;;;;28.34;39.23;101599.00;10445110;28;20090;-76
2022/07/03 14:05:43;;;;;;;1.83;1.03;;;;;;;27.46;39.62;101617.09;10445005;28;20052;-77
2022/07/03 14:10:44;;;;;;;2.07;0.83;;;;;;;27.04;37.99;101612.19;10445186;28;20479;-77
2022/07/03 14:15:45;;;;;;;1.93;1.30;;;;;;;27.70;37.47;101607.91;10504233;28;20713;-77
2022/07/03 14:20:45;;;;;;;2.73;0.87;;;;;;;26.71;39.44;101614.22;10517027;28;20033;-76
2022/07/03 14:25:46;;;;;;;2.13;0.80;;;;;;;26.50;39.86;101615.25;10497839;28;20067;-76
2022/07/03 14:36:06;;;;;;;8.20;2.53;;;;;;;25.76;40.38;101628.13;10493992;28;20392;-76
2022/07/03 14:41:06;;;;;;;2.30;0.80;;;;;;;25.18;42.94;101623.78;10524786;28;20036;-76
2022/07/03 14:46:07;;;;;;;2.20;0.77;;;;;;;24.52;43.75;101633.53;10527570;28;20054;-76
2022/07/03 14:51:07;;;;;;;6.50;0.97;;;;;;;24.29;42.25;101634.38;10525065;28;20036;-77
2022/07/03 14:56:11;;;;;;;1.60;0.80;;;;;;;25.01;39.25;101616.66;10524441;28;20071;-75
2022/07/03 15:01:12;;;;;;;1.23;0.75;;;;;;;24.75;37.07;101625.56;10508612;28;20040;-76
2022/07/03 15:06:13;;;;;;;1.93;1.23;;;;;;;24.21;40.23;101625.44;10524995;28;20464;-77
2022/07/03 15:16:37;;;;;;;2.05;0.73;;;;;;;23.75;44.02;101613.63;10525039;28;20036;-77
2022/07/03 15:21:38;;;;;;;1.87;0.70;;;;;;;23.48;41.36;101619.75;10522571;28;20116;-76
2022/07/03 15:26:38;;;;;;;6.30;1.33;;;;;;;23.21;42.29;101610.66;10428638;28;20071;-77
2022/07/03 15:31:39;;;;;;;1.97;0.70;;;;;;;22.97;41.91;101614.91;10468518;28;20158;-76
2022/07/03 15:36:51;;;;;;;1.87;0.60;;;;;;;22.93;42.00;101622.88;10512180;28;20082;-76
2022/07/03 15:41:58;;;;;;;1.17;0.60;;;;;;;22.82;43.09;101621.00;10482261;28;20598;-76
2022/07/03 15:47:10;;;;;;;2.10;0.80;;;;;;;23.01;43.49;101619.41;10509779;28;20040;-76
2022/07/03 15:52:18;;;;;;;;;;;;;;;22.79;44.13;101626.31;10496627;28;20090;-76
2022/07/03 15:57:25;;;;;;;2.10;0.80;;;;;;;22.49;45.66;101625.13;10482026;28;19921;-76
2022/07/03 16:02:51;;;;;;;3.05;0.80;;;;;;;22.39;48.95;101628.56;10469089;28;20072;-77
2022/07/03 16:07:52;;;;;;;4.53;1.25;;;;;;;22.30;46.36;101629.38;10508529;28;20047;-76
2022/07/03 16:12:53;;;;;;;4.95;1.30;;;;;;;22.04;48.67;101621.97;10473978;28;20454;-76
2022/07/03 16:17:54;;;;;;;5.75;2.55;;;;;;;22.22;48.39;101625.72;10470096;28;20052;-77
2022/07/03 16:23:00;;;;;;;4.07;2.03;;;;;;;22.05;48.65;101622.84;10463061;28;20037;-75
2022/07/03 16:28:01;;;;;;;6.45;2.17;;;;;;;21.84;49.84;101633.25;10513756;28;20043;-76
2022/07/03 16:33:04;;;;;;;6.07;2.17;;;;;;;21.75;48.87;101634.88;10493696;28;20052;-79
2022/07/03 16:38:05;;;;;;;4.40;1.80;;;;;;;21.53;50.24;101646.13;10485868;28;20115;-76
2022/07/03 16:43:06;;;;;;;3.67;1.75;;;;;;;21.35;50.38;101641.41;10501660;28;20391;-76
2022/07/03 16:48:14;;;;;;;3.92;2.10;;;;;;;21.40;50.02;101644.16;10524319;28;20043;-76
2022/07/03 16:53:18;;;;;;;4.15;1.90;;;;;;;21.09;50.46;101646.31;10495640;28;20361;-77
2022/07/03 16:58:19;;;;;;;6.35;1.67;;;;;;;21.08;50.68;101652.53;10497454;28;20119;-78
2022/07/03 17:03:22;;;;;;;3.85;1.80;;;;;;;21.01;49.49;101655.94;10483607;28;20036;-78
2022/07/03 17:08:23;;;;;;;2.42;1.45;;;;;;;20.72;52.10;101658.97;10513526;28;20048;-79
2022/07/03 17:13:23;;;;;;;5.57;1.10;;;;;;;20.50;52.00;101664.75;10528122;28;20056;-77
2022/07/03 17:18:27;;;;;;;11.20;3.17;;;;;;;20.39;51.52;101656.59;10522520;28;20047;-76
2022/07/03 17:23:30;;;;;;;3.03;1.38;;;;;;;20.17;51.62;101665.88;10496173;28;20399;-77
2022/07/03 17:28:50;;;;;;;5.50;1.38;;;;;;;20.04;53.51;101667.38;10456315;28;20116;-78
2022/07/03 17:33:52;;;;;;;12.60;8.00;;;;;;;19.95;52.63;101673.38;10482988;28;20052;-79
2022/07/03 17:38:55;;;;;;;2.15;1.08;;;;;;;19.84;53.74;101682.84;10520186;28;20051;-78
2022/07/03 17:43:56;;;;;;;2.95;1.55;;;;;;;19.75;53.96;101682.63;10512315;28;20036;-78
2022/07/03 17:48:56;;;;;;;7.80;1.20;;;;;;;19.48;53.15;101686.44;10512625;28;20388;-78
2022/07/03 17:53:57;;;;;;;2.20;1.30;;;;;;;19.30;53.10;101692.22;10476855;28;20052;-77
2022/07/03 17:58:58;;;;;;;5.90;3.17;;;;;;;19.20;53.71;101693.72;10496569;28;20492;-77
2022/07/03 18:03:59;;;;;;;2.23;1.27;;;;;;;19.13;54.00;101694.44;10487356;28;20124;-78
2022/07/03 18:09:02;;;;;;;5.38;1.30;;;;;;;19.05;54.06;101695.13;10470032;28;20040;-77
2022/07/03 18:14:10;;;;;;;3.33;1.15;;;;;;;18.91;54.27;101700.06;10485618;28;20036;-77
2022/07/03 18:19:12;;;;;;;3.65;1.23;;;;;;;18.78;56.26;101708.53;10426926;28;20043;-76
2022/07/03 18:24:12;;;;;;;1.73;0.77;;;;;;;18.65;53.04;101707.28;10482612;28;20052;-76
2022/07/03 18:29:15;;;;;;;3.00;0.90;;;;;;;18.43;53.99;101708.47;10484746;28;20059;-75
2022/07/03 18:34:21;;;;;;;0.90;0.68;;;;;;;18.36;53.13;101710.00;10484386;28;20025;-74
2022/07/03 18:39:21;;;;;;;3.05;1.20;;;;;;;18.18;54.10;101710.38;10491801;28;20048;-75
2022/07/03 18:44:22;;;;;;;4.55;0.90;;;;;;;18.01;54.35;101715.16;10484550;28;20036;-75
2022/07/03 18:49:35;;;;;;;6.00;1.50;;;;;;;17.90;55.50;101722.75;10484105;28;20478;-73
2022/07/03 18:54:52;;;;;;;5.00;2.83;;;;;;;17.71;54.82;101722.19;10467293;28;20032;-74
2022/07/03 18:59:58;;;;;;;4.25;1.00;;;;;;;17.53;55.74;101725.13;10485153;28;20041;-75
2022/07/03 19:05:02;;;;;;;2.85;1.10;;;;;;;17.39;55.69;101724.69;10482632;28;20039;-73
2022/07/03 19:10:10;;;;;;;5.07;1.48;;;;;;;17.15;57.07;101720.34;10480927;28;20446;-76
2022/07/03 19:15:13;;;;;;;3.20;1.10;;;;;;;17.06;57.54;101719.13;10465674;28;20045;-75
2022/07/03 19:20:18;;;;;;;3.60;0.93;;;;;;;16.83;59.00;101720.09;10440352;28;20045;-75
2022/07/03 19:25:20;;;;;;;6.82;2.53;;;;;;;16.72;58.40;101732.03;10439963;28;20041;-76
2022/07/03 19:30:24;;;;;;;3.33;0.95;;;;;;;16.52;59.31;101733.94;10399316;28;20115;-74
2022/07/03 19:35:27;;;;;;;2.70;1.20;;;;;;;16.30;60.28;101738.41;10438679;28;20124;-74
2022/07/03 19:40:33;;;;;;;4.55;1.33;;;;;;;16.03;61.85;101751.47;10492262;28;20113;-75
2022/07/03 19:45:36;;;;;;;3.25;1.73;;;;;;;15.85;62.69;101750.75;10506857;28;20037;-73
2022/07/03 19:50:48;;;;;;;8.13;1.45;;;;;;;15.65;63.66;101747.31;10483682;28;20042;-75
2022/07/03 19:55:51;;;;;;;2.25;1.02;;;;;;;15.51;64.00;101756.41;10475279;28;20043;-75
2022/07/03 20:00:51;;;;;;;2.78;1.13;;;;;;;15.35;67.00;101775.94;10501679;28;20124;-77
2022/07/03 20:05:52;;;;;;;4.82;1.38;;;;;;;15.02;68.85;101771.00;10503961;28;20492;-76
2022/07/03 20:10:52;;;;;;;1.77;1.05;;;;;;;14.64;70.48;101777.25;10523890;28;20448;-76
2022/07/03 20:15:53;;;;;;;2.50;1.30;;;;;;;14.36;73.17;101788.25;10519166;28;20162;-77
2022/07/03 20:20:53;;;;;;;3.38;1.33;;;;;;;14.12;73.85;101791.53;10506738;28;20048;-77
2022/07/03 20:25:58;;;;;;;3.60;1.08;;;;;;;13.95;74.02;101807.41;10492140;28;20476;-76
2022/07/03 20:30:59;;;;;;;1.85;1.20;;;;;;;13.83;74.19;101798.91;10511415;28;20040;-76
2022/07/03 20:35:59;;;;;;;3.88;1.40;;;;;;;13.69;75.48;101805.22;10533772;28;20032;-76
2022/07/03 20:41:00;;;;;;;3.60;1.10;;;;;;;13.47;76.42;101805.03;10528420;28;20079;-76
2022/07/03 20:46:00;;;;;;;2.53;1.20;;;;;;;13.34;77.12;101805.19;10490382;28;20032;-76
2022/07/03 20:51:01;;;;;;;6.47;1.38;;;;;;;13.18;78.01;101807.03;10490826;28;20042;-77
2022/07/03 20:56:02;;;;;;;5.82;1.88;;;;;;;13.07;78.95;101808.19;10522817;28;20055;-77
2022/07/03 21:01:03;;;;;;;5.03;1.77;;;;;;;12.87;79.02;101807.16;10497965;28;20045;-75
2022/07/03 21:06:23;;;;;;;1.55;1.20;;;;;;;12.63;80.24;101823.41;10487925;28;20469;-76
2022/07/03 21:11:31;;;;;;;3.53;1.38;;;;;;;12.50;80.79;101821.81;10526421;28;20032;-77
2022/07/03 21:16:32;;;;;;;3.17;1.30;;;;;;;12.38;81.09;101824.66;10512482;28;20499;-76
2022/07/03 21:21:33;;;;;;;4.82;1.55;;;;;;;12.25;81.73;101830.06;10479936;28;20037;-76
2022/07/03 21:26:34;;;;;;;3.40;1.30;;;;;;;12.11;83.23;101834.50;10504316;28;20039;-76
2022/07/03 21:31:35;;;;;;;5.13;1.60;;;;;;;12.03;84.21;101834.09;10505346;28;20051;-75
2022/07/03 21:36:35;;;;;;;5.82;1.33;;;;;;;11.95;84.63;101853.69;10487614;28;20468;-76
2022/07/03 21:41:36;;;;;;;4.97;1.50;;;;;;;11.84;84.97;101853.06;10516119;28;20051;-76
2022/07/03 21:46:37;;;;;;;2.85;1.85;;;;;;;11.73;85.38;101858.56;10530644;28;20480;-76
2022/07/03 21:51:37;;;;;;;4.72;1.48;;;;;;;11.49;86.00;101862.38;10499390;28;20532;-76
2022/07/03 21:56:38;;;;;;;3.13;1.95;;;;;;;11.31;87.93;101860.44;10486029;28;20090;-76
2022/07/03 22:01:38;;;;;;;4.57;2.17;;;;;;;11.27;88.57;101859.38;10530595;27;20127;-76
2022/07/03 22:06:39;;;;;;;5.95;1.67;;;;;;;11.15;89.22;101863.88;10510289;28;20120;-77
2022/07/03 22:12:33;;;;;;;3.47;1.75;;;;;;;11.15;90.63;101856.00;10490166;28;20047;-76
2022/07/03 22:17:00;;;;;;;5.15;1.80;;;;;;;11.13;90.62;101860.25;10484622;28;20041;-76
2022/07/03 22:22:00;;;;;;;3.83;1.80;;;;;;;10.99;90.99;101859.38;10520457;28;20110;-77
2022/07/03 22:27:01;;;;;;;3.05;1.80;;;;;;;10.83;91.00;101850.56;10501067;28;20044;-76
2022/07/03 22:32:02;;;;;;;3.00;2.25;;;;;;;10.77;92.43;101851.91;10498819;28;20047;-76
2022/07/03 22:37:05;;;;;;;5.22;2.17;;;;;;;10.83;92.76;101850.56;10492290;28;20093;-76
2022/07/03 22:42:06;;;;;;;4.55;2.05;;;;;;;10.77;92.17;101855.41;10527792;28;20032;-76
2022/07/03 22:47:06;;;;;;;3.78;1.50;;;;;;;10.62;92.08;101846.59;10517644;28;20064;-76
2022/07/03 22:52:07;;;;;;;4.63;2.30;;;;;;;10.52;92.62;101851.25;10501661;28;20036;-76
2022/07/03 22:57:10;;;;;;;4.65;1.73;;;;;;;10.51;93.45;101846.81;10527377;28;20036;-76
2022/07/03 23:02:12;;;;;;;7.00;2.70;;;;;;;10.43;94.04;101840.19;10508607;28;20029;-76
2022/07/03 23:07:12;;;;;;;5.47;2.55;;;;;;;10.31;94.39;101835.06;10483709;28;20468;-76
2022/07/03 23:12:13;;;;;;;4.53;2.35;;;;;;;10.22;95.25;101837.09;10500776;28;20111;-76
2022/07/03 23:17:13;;;;;;;11.18;4.55;;;;;;;10.24;95.85;101844.22;10526334;28;20126;-76
2022/07/03 23:22:14;;;;;;;6.63;2.63;;;;;;;10.21;95.52;101843.13;10507776;28;20117;-75
2022/07/03 23:27:14;;;;;;;5.22;2.20;;;;;;;10.27;95.97;101846.16;10485289;28;20075;-76
2022/07/03 23:32:16;;;;;;;6.28;2.30;;;;;;;10.25;96.11;101843.41;10502833;28;20040;-76